sensor_id;sensor_type;location;lat;lon;timestamp;P1;durP1;ratioP1;P2;durP2;ratioP2
18647;SDS011;9453;50.294;18.644;2023-10-13T04:01:54;12.63;;;7.78;;
18647;SDS011;9453;50.294;18.644;2023-10-13T04:04:25;12.98;;;7.03;;
18647;SDS011;9453;50.294;18.644;2023-10-13T04:07:13;13.02;;;6.80;;
18647;SDS011;9453;50.294;18.644;2023-10-13T04:09:58;10.93;;;6.18;;
18647;SDS011;9453;50.294;18.644;2023-10-13T04:12:42;12.02;;;6.88;;
18647;SDS011;9453;50.294;18.644;2023-10-13T04:15:26;11.38;;;6.75;;
18647;SDS011;9453;50.294;18.644;2023-10-13T04:18:03;18.30;;;9.30;;
18647;SDS011;9453;50.294;18.644;2023-10-13T04:20:43;13.00;;;7.63;;
18647;SDS011;9453;50.294;18.644;2023-10-13T04:23:11;19.40;;;10.30;;
18647;SDS011;9453;50.294;18.644;2023-10-13T04:25:44;19.73;;;9.82;;
18647;SDS011;9453;50.294;18.644;2023-10-13T04:28:34;17.83;;;9.63;;
18647;SDS011;9453;50.294;18.644;2023-10-13T04:31:02;14.50;;;8.15;;
18647;SDS011;9453;50.294;18.644;2023-10-13T04:33:38;13.00;;;7.75;;
18647;SDS011;9453;50.294;18.644;2023-10-13T04:36:16;15.88;;;8.23;;
18647;SDS011;9453;50.294;18.644;2023-10-13T04:38:47;12.40;;;7.18;;
18647;SDS011;9453;50.294;18.644;2023-10-13T04:41:24;16.75;;;7.30;;
18647;SDS011;9453;50.294;18.644;2023-10-13T04:43:56;10.60;;;6.00;;
18647;SDS011;9453;50.294;18.644;2023-10-13T04:46:29;10.07;;;6.38;;
18647;SDS011;9453;50.294;18.644;2023-10-13T04:49:20;14.13;;;7.50;;
18647;SDS011;9453;50.294;18.644;2023-10-13T04:51:54;14.73;;;7.45;;
18647;SDS011;9453;50.294;18.644;2023-10-13T04:54:38;12.43;;;6.63;;
18647;SDS011;9453;50.294;18.644;2023-10-13T04:57:15;9.77;;;5.65;;
18647;SDS011;9453;50.294;18.644;2023-10-13T04:59:58;9.88;;;5.55;;
18647;SDS011;9453;50.294;18.644;2023-10-13T05:02:58;8.75;;;5.82;;
18647;SDS011;9453;50.294;18.644;2023-10-13T05:06:06;9.20;;;5.25;;
18647;SDS011;9453;50.294;18.644;2023-10-13T05:08:55;12.13;;;6.40;;
18647;SDS011;9453;50.294;18.644;2023-10-13T05:11:39;12.32;;;6.40;;
18647;SDS011;9453;50.294;18.644;2023-10-13T05:14:23;13.27;;;7.28;;
18647;SDS011;9453;50.294;18.644;2023-10-13T05:17:08;11.85;;;6.47;;
18647;SDS011;9453;50.294;18.644;2023-10-13T05:19:55;12.20;;;6.68;;
18647;SDS011;9453;50.294;18.644;2023-10-13T05:22:41;11.13;;;6.28;;
18647;SDS011;9453;50.294;18.644;2023-10-13T05:25:25;12.38;;;6.85;;
18647;SDS011;9453;50.294;18.644;2023-10-13T05:28:09;15.00;;;7.40;;
18647;SDS011;9453;50.294;18.644;2023-10-13T05:30:53;11.13;;;6.47;;
18647;SDS011;9453;50.294;18.644;2023-10-13T05:33:40;9.95;;;5.93;;
18647;SDS011;9453;50.294;18.644;2023-10-13T05:36:21;10.40;;;5.60;;
18647;SDS011;9453;50.294;18.644;2023-10-13T05:39:06;11.35;;;6.55;;
18647;SDS011;9453;50.294;18.644;2023-10-13T05:41:51;12.90;;;7.25;;
18647;SDS011;9453;50.294;18.644;2023-10-13T05:44:49;13.57;;;6.63;;
18647;SDS011;9453;50.294;18.644;2023-10-13T05:47:42;15.95;;;6.55;;
18647;SDS011;9453;50.294;18.644;2023-10-13T05:50:26;9.38;;;6.22;;
18647;SDS011;9453;50.294;18.644;2023-10-13T05:53:15;11.85;;;6.45;;
18647;SDS011;9453;50.294;18.644;2023-10-13T05:56:01;13.27;;;6.35;;
18647;SDS011;9453;50.294;18.644;2023-10-13T05:58:46;11.73;;;6.22;;
18647;SDS011;9453;50.294;18.644;2023-10-13T06:01:30;11.55;;;5.85;;
18647;SDS011;9453;50.294;18.644;2023-10-13T06:04:19;11.98;;;6.10;;
18647;SDS011;9453;50.294;18.644;2023-10-13T06:07:04;12.60;;;5.60;;
18647;SDS011;9453;50.294;18.644;2023-10-13T06:09:48;10.73;;;5.95;;
18647;SDS011;9453;50.294;18.644;2023-10-13T06:12:34;8.73;;;5.55;;
18647;SDS011;9453;50.294;18.644;2023-10-13T06:15:26;9.90;;;5.35;;
18647;SDS011;9453;50.294;18.644;2023-10-13T06:18:10;9.55;;;5.40;;
18647;SDS011;9453;50.294;18.644;2023-10-13T06:20:55;16.88;;;6.40;;
18647;SDS011;9453;50.294;18.644;2023-10-13T06:23:39;12.55;;;6.63;;
18647;SDS011;9453;50.294;18.644;2023-10-13T06:26:23;9.13;;;5.20;;
18647;SDS011;9453;50.294;18.644;2023-10-13T06:29:08;12.90;;;5.85;;
18647;SDS011;9453;50.294;18.644;2023-10-13T06:31:37;12.20;;;5.28;;
18647;SDS011;9453;50.294;18.644;2023-10-13T06:34:11;11.52;;;6.57;;
18647;SDS011;9453;50.294;18.644;2023-10-13T06:36:40;14.25;;;5.68;;
18647;SDS011;9453;50.294;18.644;2023-10-13T06:39:11;9.05;;;5.45;;
18647;SDS011;9453;50.294;18.644;2023-10-13T06:42:00;12.52;;;5.45;;
18647;SDS011;9453;50.294;18.644;2023-10-13T06:44:29;11.63;;;5.22;;
18647;SDS011;9453;50.294;18.644;2023-10-13T06:46:57;13.48;;;5.72;;
18647;SDS011;9453;50.294;18.644;2023-10-13T06:49:29;9.88;;;4.72;;
18647;SDS011;9453;50.294;18.644;2023-10-13T06:51:58;10.52;;;4.72;;
18647;SDS011;9453;50.294;18.644;2023-10-13T06:54:25;10.88;;;5.03;;
18647;SDS011;9453;50.294;18.644;2023-10-13T06:56:53;7.38;;;4.30;;
18647;SDS011;9453;50.294;18.644;2023-10-13T06:59:21;7.70;;;4.22;;
18647;SDS011;9453;50.294;18.644;2023-10-13T07:01:53;13.13;;;5.50;;
18647;SDS011;9453;50.294;18.644;2023-10-13T07:04:26;13.23;;;5.53;;
18647;SDS011;9453;50.294;18.644;2023-10-13T07:06:53;8.40;;;4.72;;
18647;SDS011;9453;50.294;18.644;2023-10-13T07:09:20;9.65;;;4.57;;
18647;SDS011;9453;50.294;18.644;2023-10-13T07:12:01;8.85;;;4.60;;
18647;SDS011;9453;50.294;18.644;2023-10-13T07:14:31;7.75;;;4.80;;
18647;SDS011;9453;50.294;18.644;2023-10-13T07:17:01;7.80;;;4.28;;
18647;SDS011;9453;50.294;18.644;2023-10-13T07:19:32;8.00;;;3.75;;
18647;SDS011;9453;50.294;18.644;2023-10-13T07:22:00;7.40;;;4.63;;
18647;SDS011;9453;50.294;18.644;2023-10-13T07:24:44;8.50;;;4.72;;
18647;SDS011;9453;50.294;18.644;2023-10-13T07:27:13;9.48;;;4.65;;
18647;SDS011;9453;50.294;18.644;2023-10-13T07:29:47;8.30;;;4.72;;
18647;SDS011;9453;50.294;18.644;2023-10-13T07:32:22;9.80;;;4.78;;
18647;SDS011;9453;50.294;18.644;2023-10-13T07:34:53;11.43;;;4.70;;
18647;SDS011;9453;50.294;18.644;2023-10-13T07:37:22;10.35;;;4.75;;
18647;SDS011;9453;50.294;18.644;2023-10-13T07:39:54;8.25;;;4.57;;
18647;SDS011;9453;50.294;18.644;2023-10-13T07:42:23;8.10;;;4.47;;
18647;SDS011;9453;50.294;18.644;2023-10-13T07:44:50;8.07;;;4.38;;
18647;SDS011;9453;50.294;18.644;2023-10-13T07:47:22;7.90;;;4.05;;
18647;SDS011;9453;50.294;18.644;2023-10-13T07:49:49;9.25;;;4.00;;
18647;SDS011;9453;50.294;18.644;2023-10-13T07:52:17;9.55;;;5.07;;
18647;SDS011;9453;50.294;18.644;2023-10-13T07:55:07;8.13;;;4.60;;
18647;SDS011;9453;50.294;18.644;2023-10-13T07:57:45;6.03;;;4.30;;
18647;SDS011;9453;50.294;18.644;2023-10-13T08:00:20;9.18;;;4.30;;
18647;SDS011;9453;50.294;18.644;2023-10-13T08:03:13;9.55;;;4.97;;
18647;SDS011;9453;50.294;18.644;2023-10-13T08:05:57;9.10;;;4.40;;
18647;SDS011;9453;50.294;18.644;2023-10-13T08:08:30;8.85;;;4.35;;
18647;SDS011;9453;50.294;18.644;2023-10-13T08:11:03;13.68;;;5.10;;
18647;SDS011;9453;50.294;18.644;2023-10-13T08:13:36;10.45;;;4.30;;
18647;SDS011;9453;50.294;18.644;2023-10-13T08:16:05;7.32;;;4.60;;
18647;SDS011;9453;50.294;18.644;2023-10-13T08:18:35;7.95;;;4.05;;
18647;SDS011;9453;50.294;18.644;2023-10-13T08:21:06;5.57;;;3.92;;
18647;SDS011;9453;50.294;18.644;2023-10-13T08:23:41;6.70;;;4.10;;
18647;SDS011;9453;50.294;18.644;2023-10-13T08:26:32;5.55;;;3.08;;
18647;SDS011;9453;50.294;18.644;2023-10-13T08:29:12;6.43;;;4.13;;
18647;SDS011;9453;50.294;18.644;2023-10-13T08:31:56;7.05;;;4.25;;
18647;SDS011;9453;50.294;18.644;2023-10-13T08:34:40;6.30;;;3.50;;
18647;SDS011;9453;50.294;18.644;2023-10-13T08:37:21;5.10;;;3.10;;
18647;SDS011;9453;50.294;18.644;2023-10-13T08:39:54;5.45;;;2.95;;
18647;SDS011;9453;50.294;18.644;2023-10-13T08:42:44;5.97;;;3.65;;
18647;SDS011;9453;50.294;18.644;2023-10-13T08:45:35;8.38;;;4.18;;
18647;SDS011;9453;50.294;18.644;2023-10-13T08:48:25;6.25;;;3.30;;
18647;SDS011;9453;50.294;18.644;2023-10-13T08:50:59;6.72;;;3.55;;
18647;SDS011;9453;50.294;18.644;2023-10-13T08:53:35;5.65;;;3.20;;
18647;SDS011;9453;50.294;18.644;2023-10-13T08:56:11;5.55;;;3.72;;
18647;SDS011;9453;50.294;18.644;2023-10-13T08:58:43;7.07;;;3.45;;
18647;SDS011;9453;50.294;18.644;2023-10-13T09:01:31;8.90;;;3.90;;
18647;SDS011;9453;50.294;18.644;2023-10-13T09:04:02;7.18;;;3.63;;
18647;SDS011;9453;50.294;18.644;2023-10-13T09:06:49;8.70;;;3.55;;
18647;SDS011;9453;50.294;18.644;2023-10-13T09:09:46;7.43;;;3.83;;
18647;SDS011;9453;50.294;18.644;2023-10-13T09:12:36;12.75;;;4.78;;
18647;SDS011;9453;50.294;18.644;2023-10-13T09:15:05;6.68;;;3.42;;
18647;SDS011;9453;50.294;18.644;2023-10-13T09:17:45;6.35;;;3.05;;
18647;SDS011;9453;50.294;18.644;2023-10-13T09:20:16;12.40;;;4.20;;
18647;SDS011;9453;50.294;18.644;2023-10-13T09:22:59;12.27;;;4.30;;
18647;SDS011;9453;50.294;18.644;2023-10-13T09:25:37;8.70;;;4.10;;
18647;SDS011;9453;50.294;18.644;2023-10-13T09:28:19;9.05;;;3.70;;
18647;SDS011;9453;50.294;18.644;2023-10-13T09:30:48;6.30;;;3.58;;
18647;SDS011;9453;50.294;18.644;2023-10-13T09:33:19;5.53;;;3.33;;
18647;SDS011;9453;50.294;18.644;2023-10-13T09:35:56;6.88;;;3.60;;
18647;SDS011;9453;50.294;18.644;2023-10-13T09:38:25;6.15;;;3.35;;
18647;SDS011;9453;50.294;18.644;2023-10-13T09:40:53;10.00;;;4.05;;
18647;SDS011;9453;50.294;18.644;2023-10-13T09:43:22;6.28;;;3.15;;
18647;SDS011;9453;50.294;18.644;2023-10-13T09:45:50;6.15;;;3.35;;
18647;SDS011;9453;50.294;18.644;2023-10-13T09:48:31;5.75;;;3.08;;
18647;SDS011;9453;50.294;18.644;2023-10-13T09:50:59;8.18;;;3.67;;
18647;SDS011;9453;50.294;18.644;2023-10-13T09:53:29;11.43;;;3.53;;
18647;SDS011;9453;50.294;18.644;2023-10-13T09:56:00;6.28;;;3.45;;
18647;SDS011;9453;50.294;18.644;2023-10-13T09:58:38;7.75;;;3.25;;
18647;SDS011;9453;50.294;18.644;2023-10-13T10:01:17;5.07;;;3.20;;
18647;SDS011;9453;50.294;18.644;2023-10-13T10:04:05;9.02;;;3.45;;
18647;SDS011;9453;50.294;18.644;2023-10-13T10:06:34;8.48;;;2.88;;
18647;SDS011;9453;50.294;18.644;2023-10-13T10:09:13;7.28;;;3.38;;
18647;SDS011;9453;50.294;18.644;2023-10-13T10:14:56;6.88;;;3.20;;
18647;SDS011;9453;50.294;18.644;2023-10-13T10:17:37;9.60;;;3.40;;
18647;SDS011;9453;50.294;18.644;2023-10-13T10:20:06;6.25;;;3.03;;
18647;SDS011;9453;50.294;18.644;2023-10-13T10:22:55;9.35;;;3.53;;
18647;SDS011;9453;50.294;18.644;2023-10-13T10:25:30;6.03;;;3.55;;
18647;SDS011;9453;50.294;18.644;2023-10-13T10:28:00;8.27;;;3.63;;
18647;SDS011;9453;50.294;18.644;2023-10-13T10:30:31;7.97;;;3.45;;
18647;SDS011;9453;50.294;18.644;2023-10-13T10:32:59;7.93;;;3.40;;
18647;SDS011;9453;50.294;18.644;2023-10-13T10:35:32;6.78;;;3.22;;
18647;SDS011;9453;50.294;18.644;2023-10-13T10:38:08;6.88;;;3.17;;
18647;SDS011;9453;50.294;18.644;2023-10-13T10:40:50;7.30;;;3.40;;
18647;SDS011;9453;50.294;18.644;2023-10-13T10:43:22;6.55;;;3.30;;
18647;SDS011;9453;50.294;18.644;2023-10-13T10:45:51;8.10;;;3.80;;
18647;SDS011;9453;50.294;18.644;2023-10-13T10:48:24;8.00;;;3.00;;
18647;SDS011;9453;50.294;18.644;2023-10-13T10:50:58;10.35;;;3.90;;
18647;SDS011;9453;50.294;18.644;2023-10-13T10:53:33;7.60;;;3.30;;
18647;SDS011;9453;50.294;18.644;2023-10-13T10:56:10;9.48;;;4.00;;
18647;SDS011;9453;50.294;18.644;2023-10-13T10:58:50;7.43;;;3.55;;
18647;SDS011;9453;50.294;18.644;2023-10-13T11:01:21;10.38;;;3.63;;
18647;SDS011;9453;50.294;18.644;2023-10-13T11:03:55;6.45;;;3.10;;
18647;SDS011;9453;50.294;18.644;2023-10-13T11:06:24;5.45;;;2.88;;
18647;SDS011;9453;50.294;18.644;2023-10-13T11:09:01;8.13;;;3.53;;
18647;SDS011;9453;50.294;18.644;2023-10-13T11:11:30;9.10;;;3.47;;
18647;SDS011;9453;50.294;18.644;2023-10-13T11:14:00;6.80;;;3.05;;
18647;SDS011;9453;50.294;18.644;2023-10-13T11:16:46;5.45;;;3.00;;
18647;SDS011;9453;50.294;18.644;2023-10-13T11:19:16;5.63;;;3.30;;
18647;SDS011;9453;50.294;18.644;2023-10-13T11:21:50;9.27;;;3.60;;
18647;SDS011;9453;50.294;18.644;2023-10-13T11:24:18;7.32;;;2.97;;
18647;SDS011;9453;50.294;18.644;2023-10-13T11:26:48;6.15;;;3.28;;
18647;SDS011;9453;50.294;18.644;2023-10-13T11:29:15;8.80;;;3.35;;
18647;SDS011;9453;50.294;18.644;2023-10-13T11:31:45;5.40;;;3.38;;
18647;SDS011;9453;50.294;18.644;2023-10-13T11:34:19;7.65;;;3.88;;
18647;SDS011;9453;50.294;18.644;2023-10-13T11:36:46;6.32;;;3.70;;
18647;SDS011;9453;50.294;18.644;2023-10-13T11:39:13;5.00;;;2.90;;
18647;SDS011;9453;50.294;18.644;2023-10-13T11:41:49;5.72;;;2.88;;
18647;SDS011;9453;50.294;18.644;2023-10-13T11:44:20;6.95;;;3.03;;
18647;SDS011;9453;50.294;18.644;2023-10-13T11:46:56;8.35;;;2.67;;
18647;SDS011;9453;50.294;18.644;2023-10-13T11:49:32;5.72;;;2.80;;
18647;SDS011;9453;50.294;18.644;2023-10-13T11:52:02;10.30;;;3.20;;
18647;SDS011;9453;50.294;18.644;2023-10-13T11:54:49;6.50;;;2.88;;
18647;SDS011;9453;50.294;18.644;2023-10-13T11:57:18;9.07;;;3.03;;
18647;SDS011;9453;50.294;18.644;2023-10-13T11:59:46;4.95;;;3.13;;
18647;SDS011;9453;50.294;18.644;2023-10-13T12:02:21;5.43;;;3.05;;
18647;SDS011;9453;50.294;18.644;2023-10-13T12:05:05;4.65;;;3.25;;
18647;SDS011;9453;50.294;18.644;2023-10-13T12:07:41;4.60;;;3.05;;
18647;SDS011;9453;50.294;18.644;2023-10-13T12:10:13;4.68;;;2.70;;
18647;SDS011;9453;50.294;18.644;2023-10-13T12:13:00;7.38;;;3.10;;
18647;SDS011;9453;50.294;18.644;2023-10-13T12:15:33;5.50;;;2.97;;
18647;SDS011;9453;50.294;18.644;2023-10-13T12:18:13;4.00;;;2.53;;
18647;SDS011;9453;50.294;18.644;2023-10-13T12:20:41;5.72;;;2.50;;
18647;SDS011;9453;50.294;18.644;2023-10-13T12:23:10;4.80;;;2.30;;
18647;SDS011;9453;50.294;18.644;2023-10-13T12:25:42;3.80;;;2.17;;
18647;SDS011;9453;50.294;18.644;2023-10-13T12:28:26;4.10;;;2.15;;
18647;SDS011;9453;50.294;18.644;2023-10-13T12:30:54;6.68;;;2.92;;
18647;SDS011;9453;50.294;18.644;2023-10-13T12:33:24;4.25;;;2.33;;
18647;SDS011;9453;50.294;18.644;2023-10-13T12:36:02;4.38;;;2.20;;
18647;SDS011;9453;50.294;18.644;2023-10-13T12:38:32;6.22;;;2.30;;
18647;SDS011;9453;50.294;18.644;2023-10-13T12:41:37;5.65;;;1.95;;
18647;SDS011;9453;50.294;18.644;2023-10-13T12:44:25;4.32;;;2.00;;
18647;SDS011;9453;50.294;18.644;2023-10-13T12:47:10;5.20;;;1.80;;
18647;SDS011;9453;50.294;18.644;2023-10-13T12:49:54;2.83;;;2.08;;
18647;SDS011;9453;50.294;18.644;2023-10-13T12:52:30;3.70;;;2.13;;
18647;SDS011;9453;50.294;18.644;2023-10-13T12:54:58;3.38;;;2.10;;
18647;SDS011;9453;50.294;18.644;2023-10-13T12:57:31;3.50;;;2.05;;
18647;SDS011;9453;50.294;18.644;2023-10-13T13:00:00;6.45;;;1.95;;
18647;SDS011;9453;50.294;18.644;2023-10-13T13:02:41;7.70;;;2.25;;
18647;SDS011;9453;50.294;18.644;2023-10-13T13:05:08;4.82;;;2.10;;
18647;SDS011;9453;50.294;18.644;2023-10-13T13:07:38;3.85;;;1.98;;
18647;SDS011;9453;50.294;18.644;2023-10-13T13:10:12;3.22;;;1.80;;
18647;SDS011;9453;50.294;18.644;2023-10-13T13:12:40;7.20;;;1.85;;
18647;SDS011;9453;50.294;18.644;2023-10-13T13:15:09;3.03;;;1.75;;
18647;SDS011;9453;50.294;18.644;2023-10-13T13:17:37;6.55;;;2.03;;
18647;SDS011;9453;50.294;18.644;2023-10-13T13:20:05;5.97;;;1.90;;
18647;SDS011;9453;50.294;18.644;2023-10-13T13:22:51;2.92;;;1.80;;
18647;SDS011;9453;50.294;18.644;2023-10-13T13:25:20;9.82;;;1.90;;
18647;SDS011;9453;50.294;18.644;2023-10-13T13:27:51;3.70;;;1.80;;
18647;SDS011;9453;50.294;18.644;2023-10-13T13:30:20;7.28;;;1.95;;
18647;SDS011;9453;50.294;18.644;2023-10-13T13:32:47;3.95;;;1.92;;
18647;SDS011;9453;50.294;18.644;2023-10-13T13:35:16;5.47;;;1.80;;
18647;SDS011;9453;50.294;18.644;2023-10-13T13:37:44;4.55;;;1.75;;
18647;SDS011;9453;50.294;18.644;2023-10-13T13:40:11;5.03;;;2.05;;
18647;SDS011;9453;50.294;18.644;2023-10-13T13:42:46;3.45;;;1.90;;
18647;SDS011;9453;50.294;18.644;2023-10-13T13:45:13;3.00;;;1.92;;
18647;SDS011;9453;50.294;18.644;2023-10-13T13:47:53;3.42;;;1.83;;
18647;SDS011;9453;50.294;18.644;2023-10-13T13:50:21;4.28;;;2.20;;
18647;SDS011;9453;50.294;18.644;2023-10-13T13:52:52;3.47;;;2.10;;
18647;SDS011;9453;50.294;18.644;2023-10-13T13:55:21;5.60;;;2.10;;
18647;SDS011;9453;50.294;18.644;2023-10-13T13:57:48;4.75;;;2.45;;
18647;SDS011;9453;50.294;18.644;2023-10-13T14:00:16;4.63;;;2.13;;
18647;SDS011;9453;50.294;18.644;2023-10-13T14:02:48;3.35;;;2.30;;
18647;SDS011;9453;50.294;18.644;2023-10-13T14:05:17;4.70;;;2.42;;
18647;SDS011;9453;50.294;18.644;2023-10-13T14:07:44;5.55;;;2.45;;
18647;SDS011;9453;50.294;18.644;2023-10-13T14:10:15;7.68;;;2.65;;
18647;SDS011;9453;50.294;18.644;2023-10-13T14:12:57;6.95;;;3.10;;
18647;SDS011;9453;50.294;18.644;2023-10-13T14:15:34;6.85;;;3.00;;
18647;SDS011;9453;50.294;18.644;2023-10-13T14:18:09;9.15;;;2.90;;
18647;SDS011;9453;50.294;18.644;2023-10-13T14:20:41;8.35;;;2.08;;
18647;SDS011;9453;50.294;18.644;2023-10-13T14:23:09;5.72;;;2.50;;
18647;SDS011;9453;50.294;18.644;2023-10-13T14:25:37;3.72;;;2.20;;
18647;SDS011;9453;50.294;18.644;2023-10-13T14:28:11;4.60;;;2.40;;
18647;SDS011;9453;50.294;18.644;2023-10-13T14:30:43;5.38;;;2.92;;
18647;SDS011;9453;50.294;18.644;2023-10-13T14:33:11;3.70;;;2.28;;
18647;SDS011;9453;50.294;18.644;2023-10-13T14:35:38;5.93;;;2.47;;
18647;SDS011;9453;50.294;18.644;2023-10-13T14:38:07;4.88;;;2.50;;
18647;SDS011;9453;50.294;18.644;2023-10-13T14:40:34;4.35;;;2.25;;
18647;SDS011;9453;50.294;18.644;2023-10-13T14:43:02;3.78;;;2.22;;
18647;SDS011;9453;50.294;18.644;2023-10-13T14:45:30;4.45;;;2.70;;
18647;SDS011;9453;50.294;18.644;2023-10-13T14:47:59;5.35;;;2.80;;
18647;SDS011;9453;50.294;18.644;2023-10-13T14:50:26;5.85;;;2.30;;
18647;SDS011;9453;50.294;18.644;2023-10-13T14:52:53;4.13;;;2.55;;
18647;SDS011;9453;50.294;18.644;2023-10-13T14:55:22;6.72;;;2.58;;
18647;SDS011;9453;50.294;18.644;2023-10-13T14:58:03;5.93;;;2.50;;
18647;SDS011;9453;50.294;18.644;2023-10-13T15:00:33;4.97;;;2.53;;
18647;SDS011;9453;50.294;18.644;2023-10-13T15:03:01;3.47;;;2.47;;
18647;SDS011;9453;50.294;18.644;2023-10-13T15:05:31;5.25;;;2.78;;
18647;SDS011;9453;50.294;18.644;2023-10-13T15:08:01;7.47;;;3.30;;
18647;SDS011;9453;50.294;18.644;2023-10-13T15:10:33;7.30;;;2.80;;
18647;SDS011;9453;50.294;18.644;2023-10-13T15:13:02;4.07;;;2.17;;
18647;SDS011;9453;50.294;18.644;2023-10-13T15:15:30;5.80;;;2.67;;
18647;SDS011;9453;50.294;18.644;2023-10-13T15:18:01;5.43;;;2.47;;
18647;SDS011;9453;50.294;18.644;2023-10-13T15:20:28;3.55;;;2.22;;
18647;SDS011;9453;50.294;18.644;2023-10-13T15:22:55;5.20;;;3.00;;
18647;SDS011;9453;50.294;18.644;2023-10-13T15:25:25;7.15;;;3.13;;
18647;SDS011;9453;50.294;18.644;2023-10-13T15:28:05;8.68;;;3.13;;
18647;SDS011;9453;50.294;18.644;2023-10-13T15:30:35;6.10;;;3.15;;
18647;SDS011;9453;50.294;18.644;2023-10-13T15:33:19;3.97;;;2.67;;
18647;SDS011;9453;50.294;18.644;2023-10-13T15:35:46;7.00;;;3.15;;
18647;SDS011;9453;50.294;18.644;2023-10-13T15:38:14;5.22;;;2.55;;
18647;SDS011;9453;50.294;18.644;2023-10-13T15:40:41;5.30;;;3.50;;
18647;SDS011;9453;50.294;18.644;2023-10-13T15:43:10;6.63;;;3.50;;
18647;SDS011;9453;50.294;18.644;2023-10-13T15:45:38;6.20;;;3.55;;
18647;SDS011;9453;50.294;18.644;2023-10-13T15:48:09;7.90;;;3.25;;
18647;SDS011;9453;50.294;18.644;2023-10-13T15:50:37;7.75;;;3.88;;
18647;SDS011;9453;50.294;18.644;2023-10-13T15:53:06;6.28;;;3.60;;
18647;SDS011;9453;50.294;18.644;2023-10-13T15:55:37;7.68;;;3.13;;
18647;SDS011;9453;50.294;18.644;2023-10-13T15:58:05;6.28;;;3.92;;
18647;SDS011;9453;50.294;18.644;2023-10-13T16:00:35;8.00;;;3.70;;
18647;SDS011;9453;50.294;18.644;2023-10-13T16:03:03;6.97;;;3.67;;
18647;SDS011;9453;50.294;18.644;2023-10-13T16:05:35;8.52;;;3.38;;
18647;SDS011;9453;50.294;18.644;2023-10-13T16:08:05;9.00;;;3.75;;
18647;SDS011;9453;50.294;18.644;2023-10-13T16:10:37;6.70;;;4.28;;
18647;SDS011;9453;50.294;18.644;2023-10-13T16:13:04;9.55;;;4.47;;
18647;SDS011;9453;50.294;18.644;2023-10-13T16:15:41;8.02;;;4.80;;
18647;SDS011;9453;50.294;18.644;2023-10-13T16:18:09;11.75;;;4.80;;
18647;SDS011;9453;50.294;18.644;2023-10-13T16:20:36;6.43;;;4.22;;
18647;SDS011;9453;50.294;18.644;2023-10-13T16:23:05;9.57;;;4.22;;
18647;SDS011;9453;50.294;18.644;2023-10-13T16:25:32;6.75;;;3.88;;
18647;SDS011;9453;50.294;18.644;2023-10-13T16:27:59;7.43;;;4.18;;
18647;SDS011;9453;50.294;18.644;2023-10-13T16:30:26;5.45;;;3.50;;
18647;SDS011;9453;50.294;18.644;2023-10-13T16:32:55;6.35;;;3.60;;
18647;SDS011;9453;50.294;18.644;2023-10-13T16:35:23;7.20;;;3.65;;
18647;SDS011;9453;50.294;18.644;2023-10-13T16:37:50;7.80;;;4.50;;
18647;SDS011;9453;50.294;18.644;2023-10-13T16:40:18;6.45;;;4.22;;
18647;SDS011;9453;50.294;18.644;2023-10-13T16:42:46;6.68;;;3.83;;
18647;SDS011;9453;50.294;18.644;2023-10-13T16:45:14;9.02;;;4.28;;
18647;SDS011;9453;50.294;18.644;2023-10-13T16:47:45;6.07;;;4.00;;
18647;SDS011;9453;50.294;18.644;2023-10-13T16:50:14;10.32;;;4.65;;
18647;SDS011;9453;50.294;18.644;2023-10-13T16:52:43;8.75;;;4.40;;
18647;SDS011;9453;50.294;18.644;2023-10-13T16:55:12;9.40;;;5.75;;
18647;SDS011;9453;50.294;18.644;2023-10-13T16:57:43;9.82;;;5.82;;
18647;SDS011;9453;50.294;18.644;2023-10-13T17:00:10;11.88;;;5.35;;
18647;SDS011;9453;50.294;18.644;2023-10-13T17:02:40;9.65;;;5.32;;
18647;SDS011;9453;50.294;18.644;2023-10-13T17:05:09;8.88;;;5.07;;
18647;SDS011;9453;50.294;18.644;2023-10-13T17:07:39;9.30;;;4.53;;
18647;SDS011;9453;50.294;18.644;2023-10-13T17:10:07;9.23;;;4.80;;
18647;SDS011;9453;50.294;18.644;2023-10-13T17:12:36;8.18;;;4.78;;
18647;SDS011;9453;50.294;18.644;2023-10-13T17:15:04;7.93;;;4.40;;
18647;SDS011;9453;50.294;18.644;2023-10-13T17:17:39;11.10;;;4.28;;
18647;SDS011;9453;50.294;18.644;2023-10-13T17:20:10;8.43;;;4.50;;
18647;SDS011;9453;50.294;18.644;2023-10-13T17:22:39;7.53;;;3.90;;
18647;SDS011;9453;50.294;18.644;2023-10-13T17:25:06;7.45;;;4.28;;
18647;SDS011;9453;50.294;18.644;2023-10-13T17:27:37;6.47;;;3.45;;
18647;SDS011;9453;50.294;18.644;2023-10-13T17:30:05;9.52;;;4.57;;
18647;SDS011;9453;50.294;18.644;2023-10-13T17:32:34;9.57;;;4.00;;
18647;SDS011;9453;50.294;18.644;2023-10-13T17:35:02;6.65;;;3.50;;
18647;SDS011;9453;50.294;18.644;2023-10-13T17:37:31;7.75;;;4.07;;
18647;SDS011;9453;50.294;18.644;2023-10-13T17:40:01;7.03;;;4.10;;
18647;SDS011;9453;50.294;18.644;2023-10-13T17:42:28;6.57;;;3.83;;
18647;SDS011;9453;50.294;18.644;2023-10-13T17:45:00;7.60;;;4.63;;
18647;SDS011;9453;50.294;18.644;2023-10-13T17:47:27;11.95;;;5.15;;
18647;SDS011;9453;50.294;18.644;2023-10-13T17:49:54;10.18;;;5.00;;
18647;SDS011;9453;50.294;18.644;2023-10-13T17:52:21;8.82;;;4.32;;
18647;SDS011;9453;50.294;18.644;2023-10-13T17:54:51;10.00;;;4.72;;
18647;SDS011;9453;50.294;18.644;2023-10-13T17:57:19;9.50;;;4.80;;
18647;SDS011;9453;50.294;18.644;2023-10-13T17:59:46;12.20;;;5.47;;
18647;SDS011;9453;50.294;18.644;2023-10-13T18:02:13;10.13;;;4.40;;
18647;SDS011;9453;50.294;18.644;2023-10-13T18:04:42;12.23;;;5.15;;
18647;SDS011;9453;50.294;18.644;2023-10-13T18:07:09;9.10;;;4.65;;
18647;SDS011;9453;50.294;18.644;2023-10-13T18:09:37;8.07;;;4.35;;
18647;SDS011;9453;50.294;18.644;2023-10-13T18:12:05;7.95;;;4.63;;
18647;SDS011;9453;50.294;18.644;2023-10-13T18:14:36;8.82;;;4.60;;
18647;SDS011;9453;50.294;18.644;2023-10-13T18:17:05;7.82;;;4.30;;
18647;SDS011;9453;50.294;18.644;2023-10-13T18:19:33;7.53;;;4.63;;
18647;SDS011;9453;50.294;18.644;2023-10-13T18:22:00;9.80;;;5.03;;
18647;SDS011;9453;50.294;18.644;2023-10-13T18:24:28;7.15;;;4.13;;
18647;SDS011;9453;50.294;18.644;2023-10-13T18:26:55;10.23;;;4.43;;
18647;SDS011;9453;50.294;18.644;2023-10-13T18:29:22;9.45;;;4.95;;
18647;SDS011;9453;50.294;18.644;2023-10-13T18:31:51;11.73;;;5.57;;
18647;SDS011;9453;50.294;18.644;2023-10-13T18:34:18;10.40;;;5.47;;
18647;SDS011;9453;50.294;18.644;2023-10-13T18:36:45;11.20;;;5.85;;
18647;SDS011;9453;50.294;18.644;2023-10-13T18:39:14;8.45;;;4.25;;
18647;SDS011;9453;50.294;18.644;2023-10-13T18:41:44;11.18;;;5.18;;
18647;SDS011;9453;50.294;18.644;2023-10-13T18:44:13;9.65;;;5.40;;
18647;SDS011;9453;50.294;18.644;2023-10-13T18:46:41;8.98;;;5.35;;
18647;SDS011;9453;50.294;18.644;2023-10-13T18:49:10;9.27;;;4.72;;
18647;SDS011;9453;50.294;18.644;2023-10-13T18:51:38;8.63;;;4.68;;
18647;SDS011;9453;50.294;18.644;2023-10-13T18:54:07;8.70;;;4.43;;
18647;SDS011;9453;50.294;18.644;2023-10-13T18:56:34;10.30;;;4.97;;
18647;SDS011;9453;50.294;18.644;2023-10-13T18:59:02;8.15;;;4.75;;
18647;SDS011;9453;50.294;18.644;2023-10-13T19:01:29;10.95;;;5.22;;
18647;SDS011;9453;50.294;18.644;2023-10-13T19:04:00;9.65;;;4.97;;
18647;SDS011;9453;50.294;18.644;2023-10-13T19:06:30;10.80;;;5.85;;
18647;SDS011;9453;50.294;18.644;2023-10-13T19:08:59;9.15;;;5.20;;
18647;SDS011;9453;50.294;18.644;2023-10-13T19:11:30;7.93;;;4.80;;
18647;SDS011;9453;50.294;18.644;2023-10-13T19:14:00;9.07;;;5.30;;
18647;SDS011;9453;50.294;18.644;2023-10-13T19:16:27;9.98;;;4.97;;
18647;SDS011;9453;50.294;18.644;2023-10-13T19:18:57;8.50;;;4.72;;
18647;SDS011;9453;50.294;18.644;2023-10-13T19:21:30;10.25;;;5.38;;
18647;SDS011;9453;50.294;18.644;2023-10-13T19:24:01;10.07;;;5.60;;
18647;SDS011;9453;50.294;18.644;2023-10-13T19:26:29;8.90;;;4.78;;
18647;SDS011;9453;50.294;18.644;2023-10-13T19:28:56;9.73;;;5.32;;